AirNav   Everest Fuels
 
 417 users online  

43MO Riordan Airport
Pleasant Hill, Missouri, USA

GOING TO PLEASANT HILL?


FAA INFORMATION EFFECTIVE 16 JULY 2020

Location

FAA Identifier: 43MO
Lat/Long: 38-47-00.0400N 094-22-12.3000W
38-47.000667N 094-22.205000W
38.7833444,-94.3700833
(estimated)
Elevation: 984 ft. / 300 m (estimated)
Variation: 05E (1985)
From city: 5 miles SW of PLEASANT HILL, MO
Time zone: UTC -5 (UTC -6 during Standard Time)
Zip code: 64080

Airport Operations

Airport use: Private use. Permission required prior to landing
Activation date: 06/1979
Control tower: no
ARTCC: KANSAS CITY CENTER
FSS: COLUMBIA FLIGHT SERVICE STATION
Attendance: UNATNDD
Wind indicator: yes
Segmented circle: no

Airport Communications

WX AWOS-3PT at LRY (10 nm S): 119.975 (816-380-5936)
WX ASOS at LXT (11 nm N): 124.175 (816-347-9807)
WX ASOS at OJC (18 nm W): 119.35 (913-780-6969)

Nearby radio navigation aids

VOR radial/distance  VOR name  Freq  Var
ANXr204/21.8NAPOLEON VORTAC114.0007E
BUMr003/31.2BUTLER VORTAC115.9007E
MCIr145/34.6KANSAS CITY VORTAC113.2505E

Airport Services

Airframe service: NONE
Powerplant service: NONE
Bottled oxygen: NONE
Bulk oxygen: NONE

Runway Information

Runway 8/26

Dimensions: 2430 x 30 ft. / 741 x 9 m
Surface: asphalt
RUNWAY 8  RUNWAY 26
Latitude: 38-46.996667N38-47.004500N
Longitude: 094-22.461167W094-21.949667W
Elevation: 975.0 ft.972.0 ft.
Traffic pattern: leftright
Runway heading: 084 magnetic, 089 true264 magnetic, 269 true
Runway end identifier lights: nono

Airport Ownership and Management from official FAA records

Ownership: Privately-owned
Owner: R. J. RIORDAN
RT 5 BOX 118
PLEASANT HILL, MO 64080
Phone 816-524-1167
Manager: R. J. RIORDAN
RT 5 BOX 118
PLEASANT HILL, MO 64080
Phone 816-421-6020

Airport Operational Statistics

Aircraft based on the field: 2
Single engine airplanes: 2
    

Additional Remarks

FOR CD CTC KANSAS CITY APCH AT 816-329-2710.

Instrument Procedures

There are no published instrument procedures at 43MO.

Some nearby airports with instrument procedures:

KLRY - Lawrence Smith Memorial Airport (10 nm S)
KLXT - Lee's Summit Municipal Airport (11 nm N)
3GV - East Kansas City Airport (16 nm NE)
KOJC - Johnson County Executive Airport (18 nm W)
KMKC - Charles B Wheeler Downtown Airport (23 nm NW)
 
Loc | Ops | Rwys | IFR | FBO | Links
Com | Nav | Svcs | Stats | Notes
Area around 43MO (Riordan Airport)
 
Road maps at: MapQuest Bing Google
 
Aerial photo
No photo
 
Sectional chart

 
Airport distance calculator
Flying to Riordan Airport? Find the distance to fly.

From to 43MO

Sunrise and sunset
Times for 10-Aug-2020
 Local
(UTC-5)
 Zulu
(UTC)
Morning civil twilight06:0011:00
Sunrise06:2911:29
Sunset20:1701:17
Evening civil twilight20:4501:45

Current date and time
Zulu (UTC)  10-Aug-2020 09:50:19
Local (UTC-5)  10-Aug-2020 04:50:19
 
METAR
KLRY 
10nm S 
100935Z AUTO 00000KT 10SM CLR 24/22 A2997 RMK AO2
KLXT 
11nm N 
100853Z AUTO 18007KT 10SM CLR 25/21 A2994 RMK AO2 SLP126 T02500206 58003 $
KOJC 
17nm W 
100853Z AUTO 17006KT 10SM CLR 22/21 A2993 RMK AO2 SLP123 6//// T02170206 58003 PNO $
TAF
KMKC 
23nm NW 
100520Z 1006/1106 19006KT P6SM FEW250 WS020/22040KT FM101300 24010KT P6SM SCT250 FM102100 24007KT P6SM VCTS SCT040CB BKN250 FM102300 02005KT P6SM VCTS SCT040CB BKN250 FM110300 11005KT P6SM BKN250
KIXD 
24nm W 
100520Z 1006/1106 18007KT P6SM FEW250 WS020/22040KT FM101300 24010KT P6SM SCT250 FM102100 24009KT P6SM VCTS SCT040CB BKN250 FM102300 35006KT P6SM VCTS SCT040CB BKN250 FM110300 10005KT P6SM BKN250
NOTAMs
Click for the latest NOTAMs
NOTAMs are issued by the DoD/FAA and will open in a separate window not controlled by AirNav.

 

 
 

Would you like to see your business listed on this page?

 If your business provides an interesting product or service to pilots, flight crews, aircraft, or users of the Riordan Airport, you should consider listing it here.  To start the listing process, click on the button below
 
Add a business
 

Other Pages about Riordan Airport

Update a link
 
Copyright © AirNav, LLC. All rights reserved. Privacy Policy  Contact